sensor_id;sensor_type;location;lat;lon;timestamp;pressure;altitude;pressure_sealevel;temperature
68939;BMP180;59064;45.294;11.816;2022-12-10T00:01:50;99812.40;;;5.70
68939;BMP180;59064;45.294;11.816;2022-12-10T00:04:16;99805.00;;;5.70
68939;BMP180;59064;45.294;11.816;2022-12-10T00:06:42;99799.60;;;5.70
68939;BMP180;59064;45.294;11.816;2022-12-10T00:09:11;99801.20;;;5.70
68939;BMP180;59064;45.294;11.816;2022-12-10T00:11:37;99800.20;;;5.70
68939;BMP180;59064;45.294;11.816;2022-12-10T00:14:03;99790.40;;;5.74
68939;BMP180;59064;45.294;11.816;2022-12-10T00:16:29;99784.20;;;5.80
68939;BMP180;59064;45.294;11.816;2022-12-10T00:18:58;99789.20;;;5.80
68939;BMP180;59064;45.294;11.816;2022-12-10T00:21:27;99779.80;;;5.80
68939;BMP180;59064;45.294;11.816;2022-12-10T00:23:53;99778.40;;;5.80
68939;BMP180;59064;45.294;11.816;2022-12-10T00:26:26;99801.80;;;5.88
68939;BMP180;59064;45.294;11.816;2022-12-10T00:28:52;99805.80;;;5.90
68939;BMP180;59064;45.294;11.816;2022-12-10T00:31:19;99800.60;;;5.90
68939;BMP180;59064;45.294;11.816;2022-12-10T00:33:45;99800.00;;;5.90
68939;BMP180;59064;45.294;11.816;2022-12-10T00:36:15;99811.40;;;5.90
68939;BMP180;59064;45.294;11.816;2022-12-10T00:38:42;99822.80;;;5.90
68939;BMP180;59064;45.294;11.816;2022-12-10T00:41:08;99803.80;;;5.90
68939;BMP180;59064;45.294;11.816;2022-12-10T00:43:34;99795.80;;;5.90
68939;BMP180;59064;45.294;11.816;2022-12-10T00:46:00;99811.40;;;5.90
68939;BMP180;59064;45.294;11.816;2022-12-10T00:48:26;99801.80;;;5.92
68939;BMP180;59064;45.294;11.816;2022-12-10T00:51:00;99794.20;;;6.00
68939;BMP180;59064;45.294;11.816;2022-12-10T00:53:27;99796.00;;;6.00
68939;BMP180;59064;45.294;11.816;2022-12-10T00:55:53;99794.20;;;6.00
68939;BMP180;59064;45.294;11.816;2022-12-10T00:58:19;99789.80;;;6.00
68939;BMP180;59064;45.294;11.816;2022-12-10T01:00:45;99787.60;;;6.00
68939;BMP180;59064;45.294;11.816;2022-12-10T01:03:11;99782.40;;;6.00
68939;BMP180;59064;45.294;11.816;2022-12-10T01:05:37;99780.20;;;6.00
68939;BMP180;59064;45.294;11.816;2022-12-10T01:08:03;99787.40;;;6.00
68939;BMP180;59064;45.294;11.816;2022-12-10T01:10:28;99792.60;;;6.00
68939;BMP180;59064;45.294;11.816;2022-12-10T01:12:54;99806.60;;;6.00
68939;BMP180;59064;45.294;11.816;2022-12-10T01:15:19;99810.60;;;6.00
68939;BMP180;59064;45.294;11.816;2022-12-10T01:17:45;99807.80;;;6.00
68939;BMP180;59064;45.294;11.816;2022-12-10T01:20:10;99822.60;;;6.00
68939;BMP180;59064;45.294;11.816;2022-12-10T01:22:37;99825.40;;;6.00
68939;BMP180;59064;45.294;11.816;2022-12-10T01:25:04;99830.60;;;6.00
68939;BMP180;59064;45.294;11.816;2022-12-10T01:27:29;99829.60;;;6.00
68939;BMP180;59064;45.294;11.816;2022-12-10T01:29:55;99828.60;;;6.00
68939;BMP180;59064;45.294;11.816;2022-12-10T01:32:20;99824.60;;;6.00
68939;BMP180;59064;45.294;11.816;2022-12-10T01:34:46;99817.20;;;6.00
68939;BMP180;59064;45.294;11.816;2022-12-10T01:37:12;99808.60;;;6.00
68939;BMP180;59064;45.294;11.816;2022-12-10T01:39:38;99802.20;;;6.00
68939;BMP180;59064;45.294;11.816;2022-12-10T01:42:04;99816.00;;;6.00
68939;BMP180;59064;45.294;11.816;2022-12-10T01:46:58;99812.80;;;5.90
68939;BMP180;59064;45.294;11.816;2022-12-10T01:49:32;99801.80;;;5.90
68939;BMP180;59064;45.294;11.816;2022-12-10T01:51:58;99799.60;;;5.90
68939;BMP180;59064;45.294;11.816;2022-12-10T01:54:40;99810.40;;;5.90
68939;BMP180;59064;45.294;11.816;2022-12-10T01:57:09;99804.40;;;5.90
68939;BMP180;59064;45.294;11.816;2022-12-10T01:59:37;99806.60;;;5.90
68939;BMP180;59064;45.294;11.816;2022-12-10T02:02:31;99802.80;;;5.90
68939;BMP180;59064;45.294;11.816;2022-12-10T02:10:34;99810.60;;;5.90
68939;BMP180;59064;45.294;11.816;2022-12-10T02:13:23;99804.20;;;5.88
68939;BMP180;59064;45.294;11.816;2022-12-10T02:16:12;99805.60;;;5.80
68939;BMP180;59064;45.294;11.816;2022-12-10T02:18:53;99808.20;;;5.82
68939;BMP180;59064;45.294;11.816;2022-12-10T02:21:27;99821.00;;;5.80
68939;BMP180;59064;45.294;11.816;2022-12-10T02:23:59;99824.00;;;5.80
68939;BMP180;59064;45.294;11.816;2022-12-10T02:26:36;99814.80;;;5.80
68939;BMP180;59064;45.294;11.816;2022-12-10T02:29:20;99806.00;;;5.76
68939;BMP180;59064;45.294;11.816;2022-12-10T02:32:11;99799.40;;;5.78
68939;BMP180;59064;45.294;11.816;2022-12-10T02:34:38;99789.60;;;5.80
68939;BMP180;59064;45.294;11.816;2022-12-10T02:37:11;99786.60;;;5.80
68939;BMP180;59064;45.294;11.816;2022-12-10T02:39:40;99793.00;;;5.80
68939;BMP180;59064;45.294;11.816;2022-12-10T02:42:09;99793.40;;;5.80
68939;BMP180;59064;45.294;11.816;2022-12-10T02:44:37;99793.20;;;5.72
68939;BMP180;59064;45.294;11.816;2022-12-10T02:47:06;99797.20;;;5.70
68939;BMP180;59064;45.294;11.816;2022-12-10T02:49:34;99796.60;;;5.70
68939;BMP180;59064;45.294;11.816;2022-12-10T02:52:07;99798.20;;;5.70
68939;BMP180;59064;45.294;11.816;2022-12-10T02:54:44;99774.40;;;5.70
68939;BMP180;59064;45.294;11.816;2022-12-10T02:57:34;99765.20;;;5.72
68939;BMP180;59064;45.294;11.816;2022-12-10T03:05:50;99753.60;;;5.80
68939;BMP180;59064;45.294;11.816;2022-12-10T03:11:16;99761.80;;;5.70
68939;BMP180;59064;45.294;11.816;2022-12-10T03:16:10;99746.00;;;5.70
68939;BMP180;59064;45.294;11.816;2022-12-10T03:18:37;99754.00;;;5.78
68939;BMP180;59064;45.294;11.816;2022-12-10T03:21:05;99764.60;;;5.80
68939;BMP180;59064;45.294;11.816;2022-12-10T03:23:33;99756.80;;;5.80
68939;BMP180;59064;45.294;11.816;2022-12-10T03:26:00;99758.20;;;5.80
68939;BMP180;59064;45.294;11.816;2022-12-10T03:28:32;99754.40;;;5.80
68939;BMP180;59064;45.294;11.816;2022-12-10T03:31:00;99746.80;;;5.80
68939;BMP180;59064;45.294;11.816;2022-12-10T03:33:26;99753.20;;;5.80
68939;BMP180;59064;45.294;11.816;2022-12-10T03:35:52;99755.20;;;5.80
68939;BMP180;59064;45.294;11.816;2022-12-10T03:38:17;99759.60;;;5.80
68939;BMP180;59064;45.294;11.816;2022-12-10T03:40:43;99760.20;;;5.80
68939;BMP180;59064;45.294;11.816;2022-12-10T03:43:12;99763.40;;;5.80
68939;BMP180;59064;45.294;11.816;2022-12-10T03:45:37;99762.80;;;5.80
68939;BMP180;59064;45.294;11.816;2022-12-10T03:48:04;99769.00;;;5.80
68939;BMP180;59064;45.294;11.816;2022-12-10T03:50:29;99765.60;;;5.80
68939;BMP180;59064;45.294;11.816;2022-12-10T03:52:55;99755.40;;;5.80
68939;BMP180;59064;45.294;11.816;2022-12-10T03:55:20;99750.40;;;5.80
68939;BMP180;59064;45.294;11.816;2022-12-10T03:57:46;99750.00;;;5.80
68939;BMP180;59064;45.294;11.816;2022-12-10T04:00:12;99745.20;;;5.80
68939;BMP180;59064;45.294;11.816;2022-12-10T04:02:38;99742.40;;;5.80
68939;BMP180;59064;45.294;11.816;2022-12-10T04:05:04;99742.60;;;5.80
68939;BMP180;59064;45.294;11.816;2022-12-10T04:07:31;99737.40;;;5.80
68939;BMP180;59064;45.294;11.816;2022-12-10T04:09:57;99747.60;;;5.80
68939;BMP180;59064;45.294;11.816;2022-12-10T04:12:22;99746.80;;;5.80
68939;BMP180;59064;45.294;11.816;2022-12-10T04:14:48;99745.60;;;5.80
68939;BMP180;59064;45.294;11.816;2022-12-10T04:17:32;99741.00;;;5.90
68939;BMP180;59064;45.294;11.816;2022-12-10T04:19:59;99735.80;;;5.90
68939;BMP180;59064;45.294;11.816;2022-12-10T04:22:24;99735.00;;;5.90
68939;BMP180;59064;45.294;11.816;2022-12-10T04:25:11;99731.20;;;5.90
68939;BMP180;59064;45.294;11.816;2022-12-10T04:27:55;99730.20;;;5.90
68939;BMP180;59064;45.294;11.816;2022-12-10T04:30:21;99730.20;;;5.90
68939;BMP180;59064;45.294;11.816;2022-12-10T04:32:47;99731.20;;;5.90
68939;BMP180;59064;45.294;11.816;2022-12-10T04:35:12;99731.00;;;5.90
68939;BMP180;59064;45.294;11.816;2022-12-10T04:37:38;99724.40;;;5.90
68939;BMP180;59064;45.294;11.816;2022-12-10T04:40:04;99726.40;;;5.90
68939;BMP180;59064;45.294;11.816;2022-12-10T04:42:30;99720.80;;;5.90
68939;BMP180;59064;45.294;11.816;2022-12-10T04:44:56;99722.20;;;5.90
68939;BMP180;59064;45.294;11.816;2022-12-10T04:47:21;99718.60;;;5.90
68939;BMP180;59064;45.294;11.816;2022-12-10T04:49:47;99710.00;;;5.90
68939;BMP180;59064;45.294;11.816;2022-12-10T04:52:14;99708.00;;;5.88
68939;BMP180;59064;45.294;11.816;2022-12-10T04:54:41;99713.40;;;5.88
68939;BMP180;59064;45.294;11.816;2022-12-10T04:57:08;99715.20;;;5.90
68939;BMP180;59064;45.294;11.816;2022-12-10T04:59:35;99710.60;;;5.90
68939;BMP180;59064;45.294;11.816;2022-12-10T05:02:01;99716.20;;;5.90
68939;BMP180;59064;45.294;11.816;2022-12-10T05:04:26;99717.60;;;5.90
68939;BMP180;59064;45.294;11.816;2022-12-10T05:06:52;99713.80;;;5.90
68939;BMP180;59064;45.294;11.816;2022-12-10T05:09:18;99713.60;;;5.90
68939;BMP180;59064;45.294;11.816;2022-12-10T05:11:43;99707.20;;;5.90
68939;BMP180;59064;45.294;11.816;2022-12-10T05:14:14;99699.80;;;5.90
68939;BMP180;59064;45.294;11.816;2022-12-10T05:16:41;99691.40;;;5.90
68939;BMP180;59064;45.294;11.816;2022-12-10T05:19:09;99698.60;;;5.90
68939;BMP180;59064;45.294;11.816;2022-12-10T05:21:34;99696.40;;;5.80
68939;BMP180;59064;45.294;11.816;2022-12-10T05:24:19;99689.20;;;5.72
68939;BMP180;59064;45.294;11.816;2022-12-10T05:26:45;99689.80;;;5.70
68939;BMP180;59064;45.294;11.816;2022-12-10T05:29:12;99689.40;;;5.70
68939;BMP180;59064;45.294;11.816;2022-12-10T05:31:38;99683.60;;;5.60
68939;BMP180;59064;45.294;11.816;2022-12-10T05:34:03;99680.20;;;5.60
68939;BMP180;59064;45.294;11.816;2022-12-10T05:36:31;99676.20;;;5.50
68939;BMP180;59064;45.294;11.816;2022-12-10T05:38:57;99665.40;;;5.50
68939;BMP180;59064;45.294;11.816;2022-12-10T05:41:29;99660.40;;;5.40
68939;BMP180;59064;45.294;11.816;2022-12-10T05:43:56;99655.00;;;5.30
68939;BMP180;59064;45.294;11.816;2022-12-10T05:46:25;99661.20;;;5.30
68939;BMP180;59064;45.294;11.816;2022-12-10T05:48:51;99665.20;;;5.20
68939;BMP180;59064;45.294;11.816;2022-12-10T05:51:20;99660.80;;;5.20
68939;BMP180;59064;45.294;11.816;2022-12-10T05:53:46;99657.20;;;5.14
68939;BMP180;59064;45.294;11.816;2022-12-10T05:56:14;99648.00;;;5.10
68939;BMP180;59064;45.294;11.816;2022-12-10T05:58:42;99652.20;;;5.10
68939;BMP180;59064;45.294;11.816;2022-12-10T06:01:20;99654.20;;;5.00
68939;BMP180;59064;45.294;11.816;2022-12-10T06:03:47;99649.40;;;5.00
68939;BMP180;59064;45.294;11.816;2022-12-10T06:06:13;99647.80;;;4.92
68939;BMP180;59064;45.294;11.816;2022-12-10T06:08:38;99638.00;;;4.90
68939;BMP180;59064;45.294;11.816;2022-12-10T06:11:06;99648.60;;;4.90
68939;BMP180;59064;45.294;11.816;2022-12-10T06:13:32;99653.20;;;4.90
68939;BMP180;59064;45.294;11.816;2022-12-10T06:15:58;99654.00;;;4.88
68939;BMP180;59064;45.294;11.816;2022-12-10T06:18:23;99651.60;;;4.86
68939;BMP180;59064;45.294;11.816;2022-12-10T06:20:49;99661.40;;;4.90
68939;BMP180;59064;45.294;11.816;2022-12-10T06:23:15;99666.60;;;4.90
68939;BMP180;59064;45.294;11.816;2022-12-10T06:25:40;99668.80;;;4.90
68939;BMP180;59064;45.294;11.816;2022-12-10T06:28:07;99669.40;;;4.90
68939;BMP180;59064;45.294;11.816;2022-12-10T06:30:33;99670.20;;;4.90
68939;BMP180;59064;45.294;11.816;2022-12-10T06:32:59;99674.80;;;4.90
68939;BMP180;59064;45.294;11.816;2022-12-10T06:35:25;99674.00;;;4.90
68939;BMP180;59064;45.294;11.816;2022-12-10T06:37:50;99677.00;;;4.90
68939;BMP180;59064;45.294;11.816;2022-12-10T06:40:16;99680.80;;;5.00
68939;BMP180;59064;45.294;11.816;2022-12-10T06:42:42;99680.00;;;5.00
68939;BMP180;59064;45.294;11.816;2022-12-10T06:45:07;99683.00;;;5.10
68939;BMP180;59064;45.294;11.816;2022-12-10T06:47:33;99682.20;;;5.10
68939;BMP180;59064;45.294;11.816;2022-12-10T06:49:59;99678.40;;;5.10
68939;BMP180;59064;45.294;11.816;2022-12-10T06:52:25;99689.40;;;5.20
68939;BMP180;59064;45.294;11.816;2022-12-10T06:54:50;99693.80;;;5.20
68939;BMP180;59064;45.294;11.816;2022-12-10T06:57:16;99704.00;;;5.30
68939;BMP180;59064;45.294;11.816;2022-12-10T06:59:42;99702.80;;;5.36
68939;BMP180;59064;45.294;11.816;2022-12-10T07:02:09;99705.20;;;5.40
68939;BMP180;59064;45.294;11.816;2022-12-10T07:04:34;99713.80;;;5.38
68939;BMP180;59064;45.294;11.816;2022-12-10T07:07:00;99721.80;;;5.30
68939;BMP180;59064;45.294;11.816;2022-12-10T07:09:25;99723.40;;;5.20
68939;BMP180;59064;45.294;11.816;2022-12-10T07:11:51;99720.40;;;5.20
68939;BMP180;59064;45.294;11.816;2022-12-10T07:14:17;99720.20;;;5.10
68939;BMP180;59064;45.294;11.816;2022-12-10T07:16:43;99719.40;;;5.10
68939;BMP180;59064;45.294;11.816;2022-12-10T07:19:10;99717.40;;;5.10
68939;BMP180;59064;45.294;11.816;2022-12-10T07:21:37;99714.20;;;5.10
68939;BMP180;59064;45.294;11.816;2022-12-10T07:24:06;99717.60;;;5.10
68939;BMP180;59064;45.294;11.816;2022-12-10T07:26:36;99720.60;;;5.10
68939;BMP180;59064;45.294;11.816;2022-12-10T07:29:03;99728.00;;;5.16
68939;BMP180;59064;45.294;11.816;2022-12-10T07:31:29;99721.40;;;5.20
68939;BMP180;59064;45.294;11.816;2022-12-10T07:33:54;99720.40;;;5.20
68939;BMP180;59064;45.294;11.816;2022-12-10T07:36:22;99713.80;;;5.20
68939;BMP180;59064;45.294;11.816;2022-12-10T07:38:49;99710.60;;;5.20
68939;BMP180;59064;45.294;11.816;2022-12-10T07:41:15;99714.80;;;5.24
68939;BMP180;59064;45.294;11.816;2022-12-10T07:43:42;99707.60;;;5.28
68939;BMP180;59064;45.294;11.816;2022-12-10T07:46:20;99711.40;;;5.30
68939;BMP180;59064;45.294;11.816;2022-12-10T07:48:47;99713.80;;;5.30
68939;BMP180;59064;45.294;11.816;2022-12-10T07:51:13;99717.00;;;5.30
68939;BMP180;59064;45.294;11.816;2022-12-10T07:53:39;99718.60;;;5.30
68939;BMP180;59064;45.294;11.816;2022-12-10T07:56:06;99713.40;;;5.40
68939;BMP180;59064;45.294;11.816;2022-12-10T07:58:32;99711.20;;;5.40
68939;BMP180;59064;45.294;11.816;2022-12-10T08:00:58;99718.20;;;5.40
68939;BMP180;59064;45.294;11.816;2022-12-10T08:03:24;99722.80;;;5.40
68939;BMP180;59064;45.294;11.816;2022-12-10T08:06:08;99718.40;;;5.40
68939;BMP180;59064;45.294;11.816;2022-12-10T08:08:35;99717.60;;;5.40
68939;BMP180;59064;45.294;11.816;2022-12-10T08:11:02;99711.20;;;5.40
68939;BMP180;59064;45.294;11.816;2022-12-10T08:13:28;99710.20;;;5.40
68939;BMP180;59064;45.294;11.816;2022-12-10T08:16:00;99717.40;;;5.48
68939;BMP180;59064;45.294;11.816;2022-12-10T08:18:26;99713.40;;;5.50
68939;BMP180;59064;45.294;11.816;2022-12-10T08:20:51;99716.00;;;5.50
68939;BMP180;59064;45.294;11.816;2022-12-10T08:23:17;99708.20;;;5.50
68939;BMP180;59064;45.294;11.816;2022-12-10T08:25:42;99706.60;;;5.60
68939;BMP180;59064;45.294;11.816;2022-12-10T08:28:08;99696.60;;;5.70
68939;BMP180;59064;45.294;11.816;2022-12-10T08:30:34;99695.40;;;5.76
68939;BMP180;59064;45.294;11.816;2022-12-10T08:33:00;99698.00;;;5.80
68939;BMP180;59064;45.294;11.816;2022-12-10T08:35:25;99700.00;;;5.90
68939;BMP180;59064;45.294;11.816;2022-12-10T08:37:51;99700.00;;;5.90
68939;BMP180;59064;45.294;11.816;2022-12-10T08:40:16;99701.00;;;5.90
68939;BMP180;59064;45.294;11.816;2022-12-10T08:42:42;99703.20;;;5.98
68939;BMP180;59064;45.294;11.816;2022-12-10T08:45:08;99701.20;;;6.02
68939;BMP180;59064;45.294;11.816;2022-12-10T08:47:33;99698.40;;;6.10
68939;BMP180;59064;45.294;11.816;2022-12-10T08:49:59;99706.40;;;6.20
68939;BMP180;59064;45.294;11.816;2022-12-10T08:52:25;99704.80;;;6.30
68939;BMP180;59064;45.294;11.816;2022-12-10T08:54:50;99703.40;;;6.40
68939;BMP180;59064;45.294;11.816;2022-12-10T08:57:16;99694.60;;;6.60
68939;BMP180;59064;45.294;11.816;2022-12-10T08:59:42;99699.20;;;6.70
68939;BMP180;59064;45.294;11.816;2022-12-10T09:02:10;99688.60;;;6.88
68939;BMP180;59064;45.294;11.816;2022-12-10T09:04:36;99686.80;;;7.00
68939;BMP180;59064;45.294;11.816;2022-12-10T09:07:02;99685.00;;;7.10
68939;BMP180;59064;45.294;11.816;2022-12-10T09:09:28;99690.00;;;7.20
68939;BMP180;59064;45.294;11.816;2022-12-10T09:11:54;99683.00;;;7.30
68939;BMP180;59064;45.294;11.816;2022-12-10T09:14:19;99679.40;;;7.40
68939;BMP180;59064;45.294;11.816;2022-12-10T09:16:45;99678.40;;;7.50
68939;BMP180;59064;45.294;11.816;2022-12-10T09:19:10;99679.00;;;7.50
68939;BMP180;59064;45.294;11.816;2022-12-10T09:21:36;99671.00;;;7.50
68939;BMP180;59064;45.294;11.816;2022-12-10T09:24:01;99668.00;;;7.52
68939;BMP180;59064;45.294;11.816;2022-12-10T09:26:27;99676.20;;;7.60
68939;BMP180;59064;45.294;11.816;2022-12-10T09:28:53;99676.80;;;7.60
68939;BMP180;59064;45.294;11.816;2022-12-10T09:31:20;99679.40;;;7.70
68939;BMP180;59064;45.294;11.816;2022-12-10T09:33:49;99681.00;;;7.70
68939;BMP180;59064;45.294;11.816;2022-12-10T09:36:17;99682.00;;;7.70
68939;BMP180;59064;45.294;11.816;2022-12-10T09:38:43;99679.80;;;7.70
68939;BMP180;59064;45.294;11.816;2022-12-10T09:41:35;99673.80;;;7.70
68939;BMP180;59064;45.294;11.816;2022-12-10T09:46:50;99658.80;;;7.90
68939;BMP180;59064;45.294;11.816;2022-12-10T09:52:06;99652.00;;;8.00
68939;BMP180;59064;45.294;11.816;2022-12-10T09:54:42;99652.40;;;8.10
68939;BMP180;59064;45.294;11.816;2022-12-10T09:57:18;99649.80;;;8.20
68939;BMP180;59064;45.294;11.816;2022-12-10T09:59:48;99647.60;;;8.30
68939;BMP180;59064;45.294;11.816;2022-12-10T10:04:50;99648.60;;;8.40
68939;BMP180;59064;45.294;11.816;2022-12-10T10:07:26;99648.00;;;8.40
68939;BMP180;59064;45.294;11.816;2022-12-10T10:10:04;99648.60;;;8.30
68939;BMP180;59064;45.294;11.816;2022-12-10T10:12:31;99652.60;;;8.30
68939;BMP180;59064;45.294;11.816;2022-12-10T10:15:22;99650.00;;;8.30
68939;BMP180;59064;45.294;11.816;2022-12-10T10:17:46;99643.40;;;8.30
68939;BMP180;59064;45.294;11.816;2022-12-10T10:20:14;99636.80;;;8.30
68939;BMP180;59064;45.294;11.816;2022-12-10T10:22:40;99632.00;;;8.30
68939;BMP180;59064;45.294;11.816;2022-12-10T10:25:14;99635.00;;;8.30
68939;BMP180;59064;45.294;11.816;2022-12-10T10:27:40;99627.80;;;8.28
68939;BMP180;59064;45.294;11.816;2022-12-10T10:30:12;99617.60;;;8.20
68939;BMP180;59064;45.294;11.816;2022-12-10T10:35:04;99612.20;;;8.20
68939;BMP180;59064;45.294;11.816;2022-12-10T10:39:59;99591.80;;;8.20
68939;BMP180;59064;45.294;11.816;2022-12-10T10:42:41;99581.00;;;8.20
68939;BMP180;59064;45.294;11.816;2022-12-10T10:45:41;99579.80;;;8.30
68939;BMP180;59064;45.294;11.816;2022-12-10T10:48:27;99573.20;;;8.34
68939;BMP180;59064;45.294;11.816;2022-12-10T10:50:55;99571.20;;;8.30
68939;BMP180;59064;45.294;11.816;2022-12-10T10:53:33;99569.20;;;8.30
68939;BMP180;59064;45.294;11.816;2022-12-10T10:56:11;99569.80;;;8.20
68939;BMP180;59064;45.294;11.816;2022-12-10T10:58:57;99564.20;;;8.10
68939;BMP180;59064;45.294;11.816;2022-12-10T11:04:13;99546.80;;;8.00
68939;BMP180;59064;45.294;11.816;2022-12-10T11:06:42;99541.60;;;7.90
68939;BMP180;59064;45.294;11.816;2022-12-10T11:09:20;99543.80;;;7.90
68939;BMP180;59064;45.294;11.816;2022-12-10T11:12:00;99540.40;;;7.94
68939;BMP180;59064;45.294;11.816;2022-12-10T11:14:39;99539.00;;;7.90
68939;BMP180;59064;45.294;11.816;2022-12-10T11:19:41;99528.40;;;7.90
68939;BMP180;59064;45.294;11.816;2022-12-10T11:22:22;99520.00;;;8.00
68939;BMP180;59064;45.294;11.816;2022-12-10T11:24:48;99519.40;;;8.00
68939;BMP180;59064;45.294;11.816;2022-12-10T11:32:44;99513.20;;;8.10
68939;BMP180;59064;45.294;11.816;2022-12-10T11:35:28;99512.00;;;8.10
68939;BMP180;59064;45.294;11.816;2022-12-10T11:40:41;99506.40;;;8.20
68939;BMP180;59064;45.294;11.816;2022-12-10T11:52:06;99484.40;;;8.30
68939;BMP180;59064;45.294;11.816;2022-12-10T11:58:05;99482.80;;;8.30
68939;BMP180;59064;45.294;11.816;2022-12-10T12:01:09;99478.40;;;8.30
68939;BMP180;59064;45.294;11.816;2022-12-10T12:09:19;99467.80;;;8.20
68939;BMP180;59064;45.294;11.816;2022-12-10T12:14:44;99461.20;;;8.10
68939;BMP180;59064;45.294;11.816;2022-12-10T12:17:31;99460.60;;;8.10
68939;BMP180;59064;45.294;11.816;2022-12-10T12:20:02;99453.40;;;8.16
68939;BMP180;59064;45.294;11.816;2022-12-10T12:22:34;99449.20;;;8.20
68939;BMP180;59064;45.294;11.816;2022-12-10T12:25:10;99438.00;;;8.20
68939;BMP180;59064;45.294;11.816;2022-12-10T12:27:46;99438.00;;;8.20
68939;BMP180;59064;45.294;11.816;2022-12-10T12:30:20;99437.60;;;8.30
68939;BMP180;59064;45.294;11.816;2022-12-10T12:33:05;99437.00;;;8.30
68939;BMP180;59064;45.294;11.816;2022-12-10T12:38:31;99434.00;;;8.30
68939;BMP180;59064;45.294;11.816;2022-12-10T12:46:02;99430.40;;;8.40
68939;BMP180;59064;45.294;11.816;2022-12-10T12:48:40;99432.60;;;8.50
68939;BMP180;59064;45.294;11.816;2022-12-10T12:51:28;99438.40;;;8.58
68939;BMP180;59064;45.294;11.816;2022-12-10T12:53:55;99431.00;;;8.60
68939;BMP180;59064;45.294;11.816;2022-12-10T12:56:47;99430.40;;;8.60
68939;BMP180;59064;45.294;11.816;2022-12-10T12:59:39;99430.00;;;8.60
68939;BMP180;59064;45.294;11.816;2022-12-10T13:02:26;99428.20;;;8.58
68939;BMP180;59064;45.294;11.816;2022-12-10T13:04:58;99425.60;;;8.50
68939;BMP180;59064;45.294;11.816;2022-12-10T13:07:26;99423.60;;;8.50
68939;BMP180;59064;45.294;11.816;2022-12-10T13:10:16;99423.00;;;8.50
68939;BMP180;59064;45.294;11.816;2022-12-10T13:12:52;99417.00;;;8.40
68939;BMP180;59064;45.294;11.816;2022-12-10T13:15:38;99414.00;;;8.40
68939;BMP180;59064;45.294;11.816;2022-12-10T13:18:20;99407.80;;;8.50
68939;BMP180;59064;45.294;11.816;2022-12-10T13:20:52;99403.60;;;8.50
68939;BMP180;59064;45.294;11.816;2022-12-10T13:23:49;99404.40;;;8.50
68939;BMP180;59064;45.294;11.816;2022-12-10T13:26:29;99400.40;;;8.50
68939;BMP180;59064;45.294;11.816;2022-12-10T13:29:19;99400.00;;;8.50
68939;BMP180;59064;45.294;11.816;2022-12-10T13:31:56;99396.00;;;8.50
68939;BMP180;59064;45.294;11.816;2022-12-10T13:34:31;99394.40;;;8.44
68939;BMP180;59064;45.294;11.816;2022-12-10T13:39:48;99393.40;;;8.50
68939;BMP180;59064;45.294;11.816;2022-12-10T13:50:02;99388.80;;;8.50
68939;BMP180;59064;45.294;11.816;2022-12-10T13:52:37;99393.40;;;8.50
68939;BMP180;59064;45.294;11.816;2022-12-10T14:03:28;99396.80;;;8.50
68939;BMP180;59064;45.294;11.816;2022-12-10T14:09:00;99402.40;;;8.50
68939;BMP180;59064;45.294;11.816;2022-12-10T14:11:34;99406.20;;;8.50
68939;BMP180;59064;45.294;11.816;2022-12-10T14:14:05;99410.00;;;8.42
68939;BMP180;59064;45.294;11.816;2022-12-10T14:16:33;99411.40;;;8.40
68939;BMP180;59064;45.294;11.816;2022-12-10T14:19:04;99409.20;;;8.36
68939;BMP180;59064;45.294;11.816;2022-12-10T14:21:33;99411.00;;;8.30
68939;BMP180;59064;45.294;11.816;2022-12-10T14:24:00;99416.40;;;8.30
68939;BMP180;59064;45.294;11.816;2022-12-10T14:26:31;99412.40;;;8.30
68939;BMP180;59064;45.294;11.816;2022-12-10T14:29:12;99418.00;;;8.20
68939;BMP180;59064;45.294;11.816;2022-12-10T14:31:48;99422.60;;;8.20
68939;BMP180;59064;45.294;11.816;2022-12-10T14:34:17;99423.60;;;8.20
68939;BMP180;59064;45.294;11.816;2022-12-10T14:36:49;99422.20;;;8.18
68939;BMP180;59064;45.294;11.816;2022-12-10T14:39:42;99418.00;;;8.10
68939;BMP180;59064;45.294;11.816;2022-12-10T14:42:12;99425.20;;;8.10
68939;BMP180;59064;45.294;11.816;2022-12-10T14:44:40;99420.00;;;8.10
68939;BMP180;59064;45.294;11.816;2022-12-10T14:47:13;99424.20;;;8.10
68939;BMP180;59064;45.294;11.816;2022-12-10T14:49:42;99426.80;;;8.10
68939;BMP180;59064;45.294;11.816;2022-12-10T14:52:16;99429.00;;;8.10
68939;BMP180;59064;45.294;11.816;2022-12-10T14:54:44;99431.00;;;8.10
68939;BMP180;59064;45.294;11.816;2022-12-10T15:02:35;99423.40;;;8.00
68939;BMP180;59064;45.294;11.816;2022-12-10T15:05:03;99422.40;;;8.06
68939;BMP180;59064;45.294;11.816;2022-12-10T15:07:34;99420.80;;;8.04
68939;BMP180;59064;45.294;11.816;2022-12-10T15:10:04;99420.40;;;8.04
68939;BMP180;59064;45.294;11.816;2022-12-10T15:12:42;99426.00;;;8.02
68939;BMP180;59064;45.294;11.816;2022-12-10T15:15:31;99426.00;;;8.00
68939;BMP180;59064;45.294;11.816;2022-12-10T15:18:03;99423.40;;;8.00
68939;BMP180;59064;45.294;11.816;2022-12-10T15:28:30;99427.80;;;8.00
68939;BMP180;59064;45.294;11.816;2022-12-10T15:33:53;99424.60;;;8.00
68939;BMP180;59064;45.294;11.816;2022-12-10T15:38:48;99425.60;;;8.00
68939;BMP180;59064;45.294;11.816;2022-12-10T15:41:45;99424.60;;;8.00
68939;BMP180;59064;45.294;11.816;2022-12-10T15:46:51;99422.40;;;7.94
68939;BMP180;59064;45.294;11.816;2022-12-10T15:49:24;99419.80;;;7.90
68939;BMP180;59064;45.294;11.816;2022-12-10T15:51:51;99412.00;;;7.90
68939;BMP180;59064;45.294;11.816;2022-12-10T15:54:27;99416.80;;;7.90
68939;BMP180;59064;45.294;11.816;2022-12-10T15:56:54;99413.20;;;7.90
68939;BMP180;59064;45.294;11.816;2022-12-10T15:59:20;99412.40;;;7.88
68939;BMP180;59064;45.294;11.816;2022-12-10T16:01:45;99410.00;;;7.84
68939;BMP180;59064;45.294;11.816;2022-12-10T16:04:11;99407.60;;;7.80
68939;BMP180;59064;45.294;11.816;2022-12-10T16:06:37;99407.80;;;7.80
68939;BMP180;59064;45.294;11.816;2022-12-10T16:09:03;99409.00;;;7.80
68939;BMP180;59064;45.294;11.816;2022-12-10T16:11:28;99418.00;;;7.70
68939;BMP180;59064;45.294;11.816;2022-12-10T16:13:55;99419.20;;;7.70
68939;BMP180;59064;45.294;11.816;2022-12-10T16:16:24;99414.20;;;7.70
68939;BMP180;59064;45.294;11.816;2022-12-10T16:18:50;99414.60;;;7.70
68939;BMP180;59064;45.294;11.816;2022-12-10T16:21:16;99414.80;;;7.70
68939;BMP180;59064;45.294;11.816;2022-12-10T16:23:42;99409.00;;;7.70